sensor_id;sensor_type;location;lat;lon;timestamp;pressure;altitude;pressure_sealevel;temperature;humidity
77823;BME280;67013;49.730;17.292;2023-06-26T00:01:20;98462.13;;;17.35;60.78
77823;BME280;67013;49.730;17.292;2023-06-26T00:03:50;98464.92;;;17.37;60.81
77823;BME280;67013;49.730;17.292;2023-06-26T00:06:19;98463.02;;;17.40;60.63
77823;BME280;67013;49.730;17.292;2023-06-26T00:08:50;98461.98;;;17.43;60.54
77823;BME280;67013;49.730;17.292;2023-06-26T00:11:19;98463.59;;;17.45;60.49
77823;BME280;67013;49.730;17.292;2023-06-26T00:13:49;98464.79;;;17.43;60.54
77823;BME280;67013;49.730;17.292;2023-06-26T00:16:18;98461.27;;;17.42;60.48
77823;BME280;67013;49.730;17.292;2023-06-26T00:18:48;98464.45;;;17.40;60.42
77823;BME280;67013;49.730;17.292;2023-06-26T00:21:17;98463.48;;;17.37;60.41
77823;BME280;67013;49.730;17.292;2023-06-26T00:23:47;98459.19;;;17.34;60.48
77823;BME280;67013;49.730;17.292;2023-06-26T00:26:16;98462.16;;;17.33;60.45
77823;BME280;67013;49.730;17.292;2023-06-26T00:28:46;98462.71;;;17.31;60.43
77823;BME280;67013;49.730;17.292;2023-06-26T00:31:15;98462.62;;;17.28;60.41
77823;BME280;67013;49.730;17.292;2023-06-26T00:33:45;98463.13;;;17.27;60.64
77823;BME280;67013;49.730;17.292;2023-06-26T00:36:14;98463.67;;;17.25;60.59
77823;BME280;67013;49.730;17.292;2023-06-26T00:38:43;98461.58;;;17.23;60.63
77823;BME280;67013;49.730;17.292;2023-06-26T00:41:13;98462.52;;;17.20;60.51
77823;BME280;67013;49.730;17.292;2023-06-26T00:43:42;98463.10;;;17.18;60.63
77823;BME280;67013;49.730;17.292;2023-06-26T00:46:13;98463.45;;;17.16;60.58
77823;BME280;67013;49.730;17.292;2023-06-26T00:48:44;98463.45;;;17.15;60.58
77823;BME280;67013;49.730;17.292;2023-06-26T00:51:15;98459.40;;;17.15;60.53
77823;BME280;67013;49.730;17.292;2023-06-26T00:53:45;98460.80;;;17.16;60.49
77823;BME280;67013;49.730;17.292;2023-06-26T00:56:16;98460.77;;;17.17;60.47
77823;BME280;67013;49.730;17.292;2023-06-26T00:58:46;98462.06;;;17.16;60.51
77823;BME280;67013;49.730;17.292;2023-06-26T01:01:16;98458.02;;;17.14;60.55
77823;BME280;67013;49.730;17.292;2023-06-26T01:03:51;98453.67;;;17.12;60.52
77823;BME280;67013;49.730;17.292;2023-06-26T01:06:23;98450.54;;;17.08;60.55
77823;BME280;67013;49.730;17.292;2023-06-26T01:08:55;98449.66;;;17.03;60.65
77823;BME280;67013;49.730;17.292;2023-06-26T01:11:25;98450.77;;;16.97;60.65
77823;BME280;67013;49.730;17.292;2023-06-26T01:13:55;98452.23;;;16.91;60.83
77823;BME280;67013;49.730;17.292;2023-06-26T01:16:26;98451.25;;;16.85;60.87
77823;BME280;67013;49.730;17.292;2023-06-26T01:18:57;98446.90;;;16.79;61.03
77823;BME280;67013;49.730;17.292;2023-06-26T01:21:26;98448.00;;;16.73;61.11
77823;BME280;67013;49.730;17.292;2023-06-26T01:24:05;98449.46;;;16.69;61.28
77823;BME280;67013;49.730;17.292;2023-06-26T01:26:37;98445.92;;;16.68;61.35
77823;BME280;67013;49.730;17.292;2023-06-26T01:29:09;98443.02;;;16.69;61.33
77823;BME280;67013;49.730;17.292;2023-06-26T01:31:39;98439.80;;;16.71;61.30
77823;BME280;67013;49.730;17.292;2023-06-26T01:34:09;98438.21;;;16.73;61.35
77823;BME280;67013;49.730;17.292;2023-06-26T01:36:38;98434.98;;;16.74;61.28
77823;BME280;67013;49.730;17.292;2023-06-26T01:39:08;98437.55;;;16.73;61.31
77823;BME280;67013;49.730;17.292;2023-06-26T01:41:37;98432.48;;;16.72;61.28
77823;BME280;67013;49.730;17.292;2023-06-26T01:44:15;98436.26;;;16.71;61.23
77823;BME280;67013;49.730;17.292;2023-06-26T01:46:54;98431.77;;;16.70;61.19
77823;BME280;67013;49.730;17.292;2023-06-26T01:49:33;98426.89;;;16.68;61.32
77823;BME280;67013;49.730;17.292;2023-06-26T01:52:11;98431.30;;;16.66;61.26
77823;BME280;67013;49.730;17.292;2023-06-26T01:54:52;98429.20;;;16.65;61.21
77823;BME280;67013;49.730;17.292;2023-06-26T01:57:22;98426.95;;;16.62;61.19
77823;BME280;67013;49.730;17.292;2023-06-26T01:59:53;98429.79;;;16.60;61.16
77823;BME280;67013;49.730;17.292;2023-06-26T02:02:24;98428.48;;;16.55;61.19
77823;BME280;67013;49.730;17.292;2023-06-26T02:04:54;98427.83;;;16.47;61.41
77823;BME280;67013;49.730;17.292;2023-06-26T02:07:23;98429.55;;;16.37;61.60
77823;BME280;67013;49.730;17.292;2023-06-26T02:09:53;98426.14;;;16.29;61.69
77823;BME280;67013;49.730;17.292;2023-06-26T02:12:23;98425.82;;;16.19;61.91
77823;BME280;67013;49.730;17.292;2023-06-26T02:14:52;98427.05;;;16.10;62.12
77823;BME280;67013;49.730;17.292;2023-06-26T02:17:22;98424.73;;;16.01;62.30
77823;BME280;67013;49.730;17.292;2023-06-26T02:19:51;98426.45;;;15.94;62.55
77823;BME280;67013;49.730;17.292;2023-06-26T02:22:21;98427.50;;;15.87;62.82
77823;BME280;67013;49.730;17.292;2023-06-26T02:24:50;98429.89;;;15.80;62.86
77823;BME280;67013;49.730;17.292;2023-06-26T02:27:20;98428.27;;;15.73;63.06
77823;BME280;67013;49.730;17.292;2023-06-26T02:29:49;98430.83;;;15.66;63.24
77823;BME280;67013;49.730;17.292;2023-06-26T02:32:19;98427.67;;;15.63;63.43
77823;BME280;67013;49.730;17.292;2023-06-26T02:34:48;98436.38;;;15.60;63.42
77823;BME280;67013;49.730;17.292;2023-06-26T02:37:20;98436.72;;;15.56;63.54
77823;BME280;67013;49.730;17.292;2023-06-26T02:39:49;98437.83;;;15.53;63.66
77823;BME280;67013;49.730;17.292;2023-06-26T02:42:19;98438.16;;;15.51;63.66
77823;BME280;67013;49.730;17.292;2023-06-26T02:44:48;98441.42;;;15.52;63.67
77823;BME280;67013;49.730;17.292;2023-06-26T02:47:18;98439.80;;;15.52;63.65
77823;BME280;67013;49.730;17.292;2023-06-26T02:49:47;98440.20;;;15.53;63.72
77823;BME280;67013;49.730;17.292;2023-06-26T02:52:17;98437.98;;;15.56;63.61
77823;BME280;67013;49.730;17.292;2023-06-26T02:54:47;98436.12;;;15.57;63.62
77823;BME280;67013;49.730;17.292;2023-06-26T02:57:16;98435.65;;;15.56;63.57
77823;BME280;67013;49.730;17.292;2023-06-26T02:59:46;98435.64;;;15.54;63.58
77823;BME280;67013;49.730;17.292;2023-06-26T03:02:15;98436.34;;;15.50;63.56
77823;BME280;67013;49.730;17.292;2023-06-26T03:04:44;98431.90;;;15.45;63.75
77823;BME280;67013;49.730;17.292;2023-06-26T03:07:14;98431.98;;;15.42;63.82
77823;BME280;67013;49.730;17.292;2023-06-26T03:09:44;98430.00;;;15.41;63.83
77823;BME280;67013;49.730;17.292;2023-06-26T03:12:13;98432.10;;;15.41;63.89
77823;BME280;67013;49.730;17.292;2023-06-26T03:14:42;98435.61;;;15.43;63.86
77823;BME280;67013;49.730;17.292;2023-06-26T03:17:12;98428.77;;;15.45;63.82
77823;BME280;67013;49.730;17.292;2023-06-26T03:19:41;98432.23;;;15.47;63.74
77823;BME280;67013;49.730;17.292;2023-06-26T03:22:11;98432.71;;;15.47;63.68
77823;BME280;67013;49.730;17.292;2023-06-26T03:24:40;98429.77;;;15.45;63.65
77823;BME280;67013;49.730;17.292;2023-06-26T03:27:10;98430.57;;;15.42;63.69
77823;BME280;67013;49.730;17.292;2023-06-26T03:29:40;98429.39;;;15.40;63.74
77823;BME280;67013;49.730;17.292;2023-06-26T03:32:10;98428.30;;;15.36;63.77
77823;BME280;67013;49.730;17.292;2023-06-26T03:34:39;98425.19;;;15.30;63.87
77823;BME280;67013;49.730;17.292;2023-06-26T03:37:09;98429.38;;;15.25;64.08
77823;BME280;67013;49.730;17.292;2023-06-26T03:39:38;98423.48;;;15.24;64.12
77823;BME280;67013;49.730;17.292;2023-06-26T03:42:08;98422.60;;;15.26;64.10
77823;BME280;67013;49.730;17.292;2023-06-26T03:44:38;98424.29;;;15.31;64.03
77823;BME280;67013;49.730;17.292;2023-06-26T03:47:07;98422.22;;;15.36;63.97
77823;BME280;67013;49.730;17.292;2023-06-26T03:49:37;98428.42;;;15.41;63.81
77823;BME280;67013;49.730;17.292;2023-06-26T03:52:07;98431.61;;;15.46;63.72
77823;BME280;67013;49.730;17.292;2023-06-26T03:54:37;98435.62;;;15.52;63.56
77823;BME280;67013;49.730;17.292;2023-06-26T03:57:07;98443.29;;;15.61;63.54
77823;BME280;67013;49.730;17.292;2023-06-26T03:59:37;98445.55;;;15.72;63.43
77823;BME280;67013;49.730;17.292;2023-06-26T04:02:07;98448.93;;;15.86;63.51
77823;BME280;67013;49.730;17.292;2023-06-26T04:04:36;98450.88;;;16.01;63.70
77823;BME280;67013;49.730;17.292;2023-06-26T04:07:06;98452.55;;;16.18;63.62
77823;BME280;67013;49.730;17.292;2023-06-26T04:09:35;98449.34;;;16.38;63.65
77823;BME280;67013;49.730;17.292;2023-06-26T04:12:08;98448.46;;;16.58;63.31
77823;BME280;67013;49.730;17.292;2023-06-26T04:14:37;98446.89;;;16.81;62.88
77823;BME280;67013;49.730;17.292;2023-06-26T04:17:06;98436.88;;;17.24;61.38
77823;BME280;67013;49.730;17.292;2023-06-26T04:19:36;98438.95;;;18.43;58.62
77823;BME280;67013;49.730;17.292;2023-06-26T04:22:06;98429.26;;;19.95;55.69
77823;BME280;67013;49.730;17.292;2023-06-26T04:24:35;98426.71;;;21.52;52.76
77823;BME280;67013;49.730;17.292;2023-06-26T04:27:06;98422.83;;;23.07;49.78
77823;BME280;67013;49.730;17.292;2023-06-26T04:29:35;98420.24;;;24.68;46.69
77823;BME280;67013;49.730;17.292;2023-06-26T04:32:06;98417.18;;;26.20;43.42
77823;BME280;67013;49.730;17.292;2023-06-26T04:34:35;98417.73;;;27.66;40.61
77823;BME280;67013;49.730;17.292;2023-06-26T04:37:09;98413.52;;;29.16;38.09
77823;BME280;67013;49.730;17.292;2023-06-26T04:39:38;98415.16;;;30.53;35.70
77823;BME280;67013;49.730;17.292;2023-06-26T04:42:09;98413.66;;;31.87;33.32
77823;BME280;67013;49.730;17.292;2023-06-26T04:44:40;98415.81;;;33.13;31.55
77823;BME280;67013;49.730;17.292;2023-06-26T04:47:10;98413.63;;;34.31;29.90
77823;BME280;67013;49.730;17.292;2023-06-26T04:49:40;98421.30;;;35.43;28.20
77823;BME280;67013;49.730;17.292;2023-06-26T04:52:14;98414.91;;;36.45;26.61
77823;BME280;67013;49.730;17.292;2023-06-26T04:54:43;98419.92;;;37.32;25.00
77823;BME280;67013;49.730;17.292;2023-06-26T04:57:12;98419.50;;;38.19;24.39
77823;BME280;67013;49.730;17.292;2023-06-26T04:59:44;98419.13;;;39.13;23.39
77823;BME280;67013;49.730;17.292;2023-06-26T05:02:13;98418.59;;;39.95;22.13
77823;BME280;67013;49.730;17.292;2023-06-26T05:04:43;98415.66;;;40.68;21.40
77823;BME280;67013;49.730;17.292;2023-06-26T05:07:14;98416.28;;;41.46;20.48
77823;BME280;67013;49.730;17.292;2023-06-26T05:09:44;98413.17;;;42.21;19.93
77823;BME280;67013;49.730;17.292;2023-06-26T05:12:14;98415.09;;;42.91;18.89
77823;BME280;67013;49.730;17.292;2023-06-26T05:14:43;98419.15;;;43.56;18.40
77823;BME280;67013;49.730;17.292;2023-06-26T05:17:15;98420.27;;;44.14;17.31
77823;BME280;67013;49.730;17.292;2023-06-26T05:19:42;98422.69;;;44.52;16.94
77823;BME280;67013;49.730;17.292;2023-06-26T05:22:13;98418.30;;;44.94;16.65
77823;BME280;67013;49.730;17.292;2023-06-26T05:24:47;98419.47;;;45.45;16.15
77823;BME280;67013;49.730;17.292;2023-06-26T05:27:18;98420.64;;;45.95;15.96
77823;BME280;67013;49.730;17.292;2023-06-26T05:29:51;98422.02;;;46.32;15.63
77823;BME280;67013;49.730;17.292;2023-06-26T05:32:21;98422.89;;;46.64;15.34
77823;BME280;67013;49.730;17.292;2023-06-26T05:34:53;98426.53;;;46.96;14.82
77823;BME280;67013;49.730;17.292;2023-06-26T05:37:24;98427.01;;;47.23;14.52
77823;BME280;67013;49.730;17.292;2023-06-26T05:39:56;98426.65;;;47.49;14.63
77823;BME280;67013;49.730;17.292;2023-06-26T05:42:27;98426.95;;;47.77;14.22
77823;BME280;67013;49.730;17.292;2023-06-26T05:44:57;98426.98;;;48.00;14.14
77823;BME280;67013;49.730;17.292;2023-06-26T05:47:26;98428.27;;;48.23;13.85
77823;BME280;67013;49.730;17.292;2023-06-26T05:49:57;98430.66;;;48.43;13.83
77823;BME280;67013;49.730;17.292;2023-06-26T05:52:28;98431.83;;;48.58;13.60
77823;BME280;67013;49.730;17.292;2023-06-26T05:54:58;98430.95;;;48.76;13.67
77823;BME280;67013;49.730;17.292;2023-06-26T05:57:29;98428.77;;;48.95;13.63
77823;BME280;67013;49.730;17.292;2023-06-26T05:59:59;98425.98;;;49.16;13.35
77823;BME280;67013;49.730;17.292;2023-06-26T06:02:29;98420.98;;;49.43;12.95
77823;BME280;67013;49.730;17.292;2023-06-26T06:04:58;98423.33;;;49.70;12.74
77823;BME280;67013;49.730;17.292;2023-06-26T06:07:28;98423.19;;;49.89;12.38
77823;BME280;67013;49.730;17.292;2023-06-26T06:09:58;98421.36;;;50.03;12.34
77823;BME280;67013;49.730;17.292;2023-06-26T06:12:27;98421.27;;;50.16;12.31
77823;BME280;67013;49.730;17.292;2023-06-26T06:14:57;98420.36;;;50.33;12.19
77823;BME280;67013;49.730;17.292;2023-06-26T06:17:26;98422.54;;;50.46;12.03
77823;BME280;67013;49.730;17.292;2023-06-26T06:19:56;98424.06;;;50.56;11.98
77823;BME280;67013;49.730;17.292;2023-06-26T06:22:26;98423.09;;;50.56;11.87
77823;BME280;67013;49.730;17.292;2023-06-26T06:24:55;98419.98;;;50.65;11.97
77823;BME280;67013;49.730;17.292;2023-06-26T06:27:24;98417.70;;;50.79;11.89
77823;BME280;67013;49.730;17.292;2023-06-26T06:29:54;98415.95;;;50.95;11.83
77823;BME280;67013;49.730;17.292;2023-06-26T06:32:23;98417.05;;;51.14;11.61
77823;BME280;67013;49.730;17.292;2023-06-26T06:34:53;98419.16;;;51.23;11.25
77823;BME280;67013;49.730;17.292;2023-06-26T06:37:21;98416.89;;;51.20;11.15
77823;BME280;67013;49.730;17.292;2023-06-26T06:39:50;98414.71;;;51.10;11.27
77823;BME280;67013;49.730;17.292;2023-06-26T06:42:20;98411.76;;;50.96;11.44
77823;BME280;67013;49.730;17.292;2023-06-26T06:44:50;98409.80;;;50.98;11.28
77823;BME280;67013;49.730;17.292;2023-06-26T06:47:21;98407.32;;;50.97;11.13
77823;BME280;67013;49.730;17.292;2023-06-26T06:49:50;98409.17;;;50.99;11.02
77823;BME280;67013;49.730;17.292;2023-06-26T06:52:19;98406.67;;;51.09;10.70
77823;BME280;67013;49.730;17.292;2023-06-26T06:54:56;98407.19;;;51.24;10.47
77823;BME280;67013;49.730;17.292;2023-06-26T06:57:27;98412.02;;;51.29;10.48
77823;BME280;67013;49.730;17.292;2023-06-26T06:59:54;98410.86;;;51.32;10.39
77823;BME280;67013;49.730;17.292;2023-06-26T07:02:24;98409.15;;;51.29;10.57
77823;BME280;67013;49.730;17.292;2023-06-26T07:04:53;98408.92;;;51.04;10.62
77823;BME280;67013;49.730;17.292;2023-06-26T07:07:23;98406.80;;;50.87;10.81
77823;BME280;67013;49.730;17.292;2023-06-26T07:09:52;98405.91;;;50.69;11.07
77823;BME280;67013;49.730;17.292;2023-06-26T07:12:22;98403.49;;;50.45;11.12
77823;BME280;67013;49.730;17.292;2023-06-26T07:14:51;98405.23;;;50.14;11.06
77823;BME280;67013;49.730;17.292;2023-06-26T07:17:22;98405.77;;;49.77;11.08
77823;BME280;67013;49.730;17.292;2023-06-26T07:19:51;98408.39;;;49.36;11.19
77823;BME280;67013;49.730;17.292;2023-06-26T07:22:21;98409.48;;;48.86;11.71
77823;BME280;67013;49.730;17.292;2023-06-26T07:24:51;98408.73;;;48.29;11.88
77823;BME280;67013;49.730;17.292;2023-06-26T07:27:21;98405.95;;;47.58;12.19
77823;BME280;67013;49.730;17.292;2023-06-26T07:29:50;98399.10;;;46.86;12.73
77823;BME280;67013;49.730;17.292;2023-06-26T07:32:20;98401.39;;;46.19;12.83
77823;BME280;67013;49.730;17.292;2023-06-26T07:34:49;98401.27;;;45.51;13.41
77823;BME280;67013;49.730;17.292;2023-06-26T07:37:19;98406.03;;;44.84;14.17
77823;BME280;67013;49.730;17.292;2023-06-26T07:39:49;98404.23;;;44.25;14.88
77823;BME280;67013;49.730;17.292;2023-06-26T07:42:18;98406.73;;;43.76;15.41
77823;BME280;67013;49.730;17.292;2023-06-26T07:44:48;98405.09;;;43.23;15.58
77823;BME280;67013;49.730;17.292;2023-06-26T07:47:17;98404.38;;;42.73;15.64
77823;BME280;67013;49.730;17.292;2023-06-26T07:49:47;98401.84;;;42.28;15.66
77823;BME280;67013;49.730;17.292;2023-06-26T07:52:17;98400.38;;;41.86;16.25
77823;BME280;67013;49.730;17.292;2023-06-26T07:54:47;98397.66;;;41.51;16.62
77823;BME280;67013;49.730;17.292;2023-06-26T07:57:16;98395.02;;;41.25;16.71
77823;BME280;67013;49.730;17.292;2023-06-26T07:59:46;98390.53;;;40.97;16.78
77823;BME280;67013;49.730;17.292;2023-06-26T08:02:15;98390.86;;;40.70;16.58
77823;BME280;67013;49.730;17.292;2023-06-26T08:04:45;98389.52;;;40.46;16.67
77823;BME280;67013;49.730;17.292;2023-06-26T08:07:15;98391.73;;;40.20;16.94
77823;BME280;67013;49.730;17.292;2023-06-26T08:09:44;98386.70;;;39.88;17.28
77823;BME280;67013;49.730;17.292;2023-06-26T08:12:13;98384.29;;;39.70;17.71
77823;BME280;67013;49.730;17.292;2023-06-26T08:14:43;98389.81;;;39.52;17.74
77823;BME280;67013;49.730;17.292;2023-06-26T08:17:12;98387.67;;;39.33;17.95
77823;BME280;67013;49.730;17.292;2023-06-26T08:19:42;98387.56;;;39.15;18.26
77823;BME280;67013;49.730;17.292;2023-06-26T08:22:11;98383.59;;;39.04;18.43
77823;BME280;67013;49.730;17.292;2023-06-26T08:24:41;98384.89;;;38.89;18.27
77823;BME280;67013;49.730;17.292;2023-06-26T08:27:10;98383.88;;;38.76;18.01
77823;BME280;67013;49.730;17.292;2023-06-26T08:29:39;98382.92;;;38.66;18.22
77823;BME280;67013;49.730;17.292;2023-06-26T08:32:09;98378.49;;;38.60;18.08
77823;BME280;67013;49.730;17.292;2023-06-26T08:34:38;98380.69;;;38.55;18.09
77823;BME280;67013;49.730;17.292;2023-06-26T08:37:08;98376.23;;;38.51;18.60
77823;BME280;67013;49.730;17.292;2023-06-26T08:39:38;98373.96;;;38.46;18.54
77823;BME280;67013;49.730;17.292;2023-06-26T08:42:08;98373.83;;;38.35;18.56
77823;BME280;67013;49.730;17.292;2023-06-26T08:44:38;98371.39;;;38.30;18.73
77823;BME280;67013;49.730;17.292;2023-06-26T08:47:07;98371.97;;;38.18;18.91
77823;BME280;67013;49.730;17.292;2023-06-26T08:49:46;98370.30;;;38.06;19.09
77823;BME280;67013;49.730;17.292;2023-06-26T08:52:19;98365.29;;;38.01;18.80
77823;BME280;67013;49.730;17.292;2023-06-26T08:54:56;98363.17;;;37.96;18.76
77823;BME280;67013;49.730;17.292;2023-06-26T08:57:27;98363.86;;;37.91;19.18
77823;BME280;67013;49.730;17.292;2023-06-26T08:59:55;98362.96;;;37.89;19.52
77823;BME280;67013;49.730;17.292;2023-06-26T09:02:25;98359.11;;;37.84;18.96
77823;BME280;67013;49.730;17.292;2023-06-26T09:04:55;98357.97;;;37.73;18.50
77823;BME280;67013;49.730;17.292;2023-06-26T09:07:25;98357.15;;;37.60;18.51
77823;BME280;67013;49.730;17.292;2023-06-26T09:09:55;98360.49;;;37.52;18.94
77823;BME280;67013;49.730;17.292;2023-06-26T09:12:24;98357.88;;;37.47;19.55
77823;BME280;67013;49.730;17.292;2023-06-26T09:14:56;98356.00;;;37.50;19.15
77823;BME280;67013;49.730;17.292;2023-06-26T09:17:30;98355.21;;;37.46;19.34
77823;BME280;67013;49.730;17.292;2023-06-26T09:20:00;98353.22;;;37.43;19.55
77823;BME280;67013;49.730;17.292;2023-06-26T09:22:33;98350.27;;;37.39;19.37
77823;BME280;67013;49.730;17.292;2023-06-26T09:25:02;98349.02;;;37.34;19.43
77823;BME280;67013;49.730;17.292;2023-06-26T09:27:34;98346.79;;;37.33;19.25
77823;BME280;67013;49.730;17.292;2023-06-26T09:30:06;98346.39;;;37.29;19.03
77823;BME280;67013;49.730;17.292;2023-06-26T09:32:37;98342.17;;;37.21;19.29
77823;BME280;67013;49.730;17.292;2023-06-26T09:35:06;98345.39;;;37.22;19.74
77823;BME280;67013;49.730;17.292;2023-06-26T09:37:37;98344.90;;;37.25;19.55
77823;BME280;67013;49.730;17.292;2023-06-26T09:40:08;98343.82;;;37.31;19.22
77823;BME280;67013;49.730;17.292;2023-06-26T09:42:38;98344.20;;;37.30;18.91
77823;BME280;67013;49.730;17.292;2023-06-26T09:45:12;98341.42;;;37.31;19.18
77823;BME280;67013;49.730;17.292;2023-06-26T09:47:46;98341.66;;;37.36;19.09
77823;BME280;67013;49.730;17.292;2023-06-26T09:50:24;98339.80;;;37.40;19.29
77823;BME280;67013;49.730;17.292;2023-06-26T09:52:55;98342.65;;;37.46;19.45
77823;BME280;67013;49.730;17.292;2023-06-26T09:55:27;98340.64;;;37.45;18.95
77823;BME280;67013;49.730;17.292;2023-06-26T09:57:58;98340.85;;;37.35;19.05
77823;BME280;67013;49.730;17.292;2023-06-26T10:00:29;98338.60;;;37.30;19.40
77823;BME280;67013;49.730;17.292;2023-06-26T10:02:59;98334.08;;;37.32;19.07
77823;BME280;67013;49.730;17.292;2023-06-26T10:05:29;98328.48;;;37.37;18.82
77823;BME280;67013;49.730;17.292;2023-06-26T10:08:00;98328.16;;;37.36;18.14
77823;BME280;67013;49.730;17.292;2023-06-26T10:10:30;98327.05;;;37.26;18.31
77823;BME280;67013;49.730;17.292;2023-06-26T10:13:06;98322.20;;;37.12;18.50
77823;BME280;67013;49.730;17.292;2023-06-26T10:15:38;98321.26;;;36.99;18.33
77823;BME280;67013;49.730;17.292;2023-06-26T10:18:09;98323.39;;;36.92;18.41
77823;BME280;67013;49.730;17.292;2023-06-26T10:20:39;98315.86;;;36.89;18.72
77823;BME280;67013;49.730;17.292;2023-06-26T10:23:10;98311.21;;;36.84;18.66
77823;BME280;67013;49.730;17.292;2023-06-26T10:25:42;98308.81;;;36.79;18.59
77823;BME280;67013;49.730;17.292;2023-06-26T10:28:14;98309.14;;;36.80;18.99
77823;BME280;67013;49.730;17.292;2023-06-26T10:30:46;98308.80;;;36.87;19.18
77823;BME280;67013;49.730;17.292;2023-06-26T10:33:17;98303.99;;;36.91;19.00
77823;BME280;67013;49.730;17.292;2023-06-26T10:35:48;98302.76;;;36.88;19.09
77823;BME280;67013;49.730;17.292;2023-06-26T10:38:19;98300.78;;;36.91;19.13
77823;BME280;67013;49.730;17.292;2023-06-26T10:40:49;98302.46;;;36.97;19.20
77823;BME280;67013;49.730;17.292;2023-06-26T10:43:18;98292.95;;;37.04;19.05
77823;BME280;67013;49.730;17.292;2023-06-26T10:45:49;98289.17;;;37.08;18.56
77823;BME280;67013;49.730;17.292;2023-06-26T10:48:22;98289.44;;;37.01;18.58
77823;BME280;67013;49.730;17.292;2023-06-26T10:50:52;98286.07;;;36.88;18.49
77823;BME280;67013;49.730;17.292;2023-06-26T10:53:28;98283.34;;;36.75;18.81
77823;BME280;67013;49.730;17.292;2023-06-26T10:56:04;98283.42;;;36.67;19.30
77823;BME280;67013;49.730;17.292;2023-06-26T10:58:41;98285.41;;;36.65;19.29
77823;BME280;67013;49.730;17.292;2023-06-26T11:01:19;98283.30;;;36.60;19.00
77823;BME280;67013;49.730;17.292;2023-06-26T11:04:04;98281.10;;;36.58;19.29
77823;BME280;67013;49.730;17.292;2023-06-26T11:06:35;98278.30;;;36.53;19.11
77823;BME280;67013;49.730;17.292;2023-06-26T11:09:13;98272.59;;;36.48;19.15
77823;BME280;67013;49.730;17.292;2023-06-26T11:12:02;98271.57;;;36.46;19.17
77823;BME280;67013;49.730;17.292;2023-06-26T11:14:33;98262.45;;;36.36;19.06
77823;BME280;67013;49.730;17.292;2023-06-26T11:17:05;98264.75;;;36.20;19.20
77823;BME280;67013;49.730;17.292;2023-06-26T11:19:35;98261.17;;;35.96;19.29
77823;BME280;67013;49.730;17.292;2023-06-26T11:22:06;98256.65;;;35.89;19.87
77823;BME280;67013;49.730;17.292;2023-06-26T11:24:35;98253.34;;;35.90;19.69
77823;BME280;67013;49.730;17.292;2023-06-26T11:27:06;98255.29;;;35.90;19.48
77823;BME280;67013;49.730;17.292;2023-06-26T11:29:35;98252.37;;;35.87;19.64
77823;BME280;67013;49.730;17.292;2023-06-26T11:32:07;98251.73;;;35.83;19.75
77823;BME280;67013;49.730;17.292;2023-06-26T11:34:36;98250.15;;;35.85;19.98
77823;BME280;67013;49.730;17.292;2023-06-26T11:37:07;98248.85;;;35.84;19.90
77823;BME280;67013;49.730;17.292;2023-06-26T11:39:36;98251.45;;;35.85;20.52
77823;BME280;67013;49.730;17.292;2023-06-26T11:42:07;98250.09;;;35.84;20.26
77823;BME280;67013;49.730;17.292;2023-06-26T11:44:40;98248.57;;;35.86;20.44
77823;BME280;67013;49.730;17.292;2023-06-26T11:47:13;98244.89;;;35.85;20.09
77823;BME280;67013;49.730;17.292;2023-06-26T11:49:49;98242.11;;;35.84;20.44
77823;BME280;67013;49.730;17.292;2023-06-26T11:52:19;98241.39;;;35.87;20.88
77823;BME280;67013;49.730;17.292;2023-06-26T11:54:49;98238.14;;;35.86;20.43
77823;BME280;67013;49.730;17.292;2023-06-26T11:57:18;98234.55;;;35.87;20.40
77823;BME280;67013;49.730;17.292;2023-06-26T11:59:51;98232.55;;;35.88;20.77
77823;BME280;67013;49.730;17.292;2023-06-26T12:02:22;98235.29;;;35.92;20.85
77823;BME280;67013;49.730;17.292;2023-06-26T12:04:52;98236.17;;;35.98;20.54
77823;BME280;67013;49.730;17.292;2023-06-26T12:07:22;98235.46;;;36.01;20.33
77823;BME280;67013;49.730;17.292;2023-06-26T12:09:52;98235.96;;;36.00;19.97
77823;BME280;67013;49.730;17.292;2023-06-26T12:12:23;98228.73;;;35.91;19.79
77823;BME280;67013;49.730;17.292;2023-06-26T12:14:55;98225.50;;;35.85;19.98
77823;BME280;67013;49.730;17.292;2023-06-26T12:17:25;98225.34;;;35.85;20.26
77823;BME280;67013;49.730;17.292;2023-06-26T12:19:54;98221.61;;;35.79;20.26
77823;BME280;67013;49.730;17.292;2023-06-26T12:22:24;98223.95;;;35.77;20.33
77823;BME280;67013;49.730;17.292;2023-06-26T12:25:03;98220.38;;;35.73;20.44
77823;BME280;67013;49.730;17.292;2023-06-26T12:27:33;98221.52;;;35.70;20.93
77823;BME280;67013;49.730;17.292;2023-06-26T12:30:05;98216.09;;;35.72;20.80
77823;BME280;67013;49.730;17.292;2023-06-26T12:32:36;98217.71;;;35.75;20.99
77823;BME280;67013;49.730;17.292;2023-06-26T12:35:05;98213.78;;;35.79;20.59
77823;BME280;67013;49.730;17.292;2023-06-26T12:37:39;98209.49;;;35.81;20.61
77823;BME280;67013;49.730;17.292;2023-06-26T12:40:19;98206.92;;;35.86;21.07
77823;BME280;67013;49.730;17.292;2023-06-26T12:42:50;98211.75;;;35.90;20.86
77823;BME280;67013;49.730;17.292;2023-06-26T12:45:21;98209.55;;;35.92;20.95
77823;BME280;67013;49.730;17.292;2023-06-26T12:47:51;98207.19;;;35.96;20.81
77823;BME280;67013;49.730;17.292;2023-06-26T12:50:21;98207.80;;;35.94;20.71
77823;BME280;67013;49.730;17.292;2023-06-26T12:52:50;98205.85;;;35.93;20.64
77823;BME280;67013;49.730;17.292;2023-06-26T12:55:22;98199.73;;;35.91;20.42
77823;BME280;67013;49.730;17.292;2023-06-26T12:57:51;98199.01;;;35.85;20.61
77823;BME280;67013;49.730;17.292;2023-06-26T13:00:22;98194.95;;;35.81;20.22
77823;BME280;67013;49.730;17.292;2023-06-26T13:02:53;98191.23;;;35.76;20.52
77823;BME280;67013;49.730;17.292;2023-06-26T13:05:23;98183.53;;;35.68;20.88
77823;BME280;67013;49.730;17.292;2023-06-26T13:07:53;98183.88;;;35.62;21.14